sensor_id;sensor_type;location;lat;lon;timestamp;P1;durP1;ratioP1;P2;durP2;ratioP2
80623;SDS011;70269;44.768;9.600;2023-09-18T00:02:07;15.45;;;7.55;;
80623;SDS011;70269;44.768;9.600;2023-09-18T00:04:32;12.65;;;7.80;;
80623;SDS011;70269;44.768;9.600;2023-09-18T00:06:59;12.63;;;7.75;;
80623;SDS011;70269;44.768;9.600;2023-09-18T00:09:25;13.55;;;7.78;;
80623;SDS011;70269;44.768;9.600;2023-09-18T00:11:50;16.88;;;8.40;;
80623;SDS011;70269;44.768;9.600;2023-09-18T00:14:16;12.30;;;7.07;;
80623;SDS011;70269;44.768;9.600;2023-09-18T00:16:42;11.05;;;6.70;;
80623;SDS011;70269;44.768;9.600;2023-09-18T00:19:07;12.38;;;7.78;;
80623;SDS011;70269;44.768;9.600;2023-09-18T00:21:33;14.70;;;7.57;;
80623;SDS011;70269;44.768;9.600;2023-09-18T00:23:59;11.80;;;7.53;;
80623;SDS011;70269;44.768;9.600;2023-09-18T00:26:25;12.38;;;7.10;;
80623;SDS011;70269;44.768;9.600;2023-09-18T00:28:52;11.90;;;7.15;;
80623;SDS011;70269;44.768;9.600;2023-09-18T00:31:18;14.05;;;7.43;;
80623;SDS011;70269;44.768;9.600;2023-09-18T00:33:44;12.23;;;8.10;;
80623;SDS011;70269;44.768;9.600;2023-09-18T00:36:09;14.05;;;7.43;;
80623;SDS011;70269;44.768;9.600;2023-09-18T00:38:35;13.45;;;7.82;;
80623;SDS011;70269;44.768;9.600;2023-09-18T00:41:01;13.23;;;7.60;;
80623;SDS011;70269;44.768;9.600;2023-09-18T00:43:26;13.05;;;7.32;;
80623;SDS011;70269;44.768;9.600;2023-09-18T00:45:52;13.63;;;8.35;;
80623;SDS011;70269;44.768;9.600;2023-09-18T00:48:18;11.95;;;7.15;;
80623;SDS011;70269;44.768;9.600;2023-09-18T00:50:44;12.55;;;7.22;;
80623;SDS011;70269;44.768;9.600;2023-09-18T00:53:12;14.52;;;7.90;;
80623;SDS011;70269;44.768;9.600;2023-09-18T00:55:41;11.85;;;6.78;;
80623;SDS011;70269;44.768;9.600;2023-09-18T00:58:07;12.88;;;7.18;;
80623;SDS011;70269;44.768;9.600;2023-09-18T01:00:33;12.57;;;7.97;;
80623;SDS011;70269;44.768;9.600;2023-09-18T01:02:59;12.25;;;7.32;;
80623;SDS011;70269;44.768;9.600;2023-09-18T01:05:27;16.58;;;7.65;;
80623;SDS011;70269;44.768;9.600;2023-09-18T01:07:53;11.77;;;7.55;;
80623;SDS011;70269;44.768;9.600;2023-09-18T01:10:18;10.93;;;6.65;;
80623;SDS011;70269;44.768;9.600;2023-09-18T01:12:56;12.68;;;7.07;;
80623;SDS011;70269;44.768;9.600;2023-09-18T01:15:32;12.25;;;6.32;;
80623;SDS011;70269;44.768;9.600;2023-09-18T01:18:02;14.98;;;7.40;;
80623;SDS011;70269;44.768;9.600;2023-09-18T01:20:28;10.52;;;6.30;;
80623;SDS011;70269;44.768;9.600;2023-09-18T01:22:53;12.63;;;7.65;;
80623;SDS011;70269;44.768;9.600;2023-09-18T01:25:19;13.57;;;8.65;;
80623;SDS011;70269;44.768;9.600;2023-09-18T01:27:45;11.30;;;6.70;;
80623;SDS011;70269;44.768;9.600;2023-09-18T01:30:10;12.65;;;7.22;;
80623;SDS011;70269;44.768;9.600;2023-09-18T01:32:37;11.25;;;7.18;;
80623;SDS011;70269;44.768;9.600;2023-09-18T01:35:04;12.70;;;6.88;;
80623;SDS011;70269;44.768;9.600;2023-09-18T01:37:32;11.90;;;7.10;;
80623;SDS011;70269;44.768;9.600;2023-09-18T01:40:00;13.05;;;7.05;;
80623;SDS011;70269;44.768;9.600;2023-09-18T01:42:32;11.80;;;7.38;;
80623;SDS011;70269;44.768;9.600;2023-09-18T01:44:59;11.88;;;7.03;;
80623;SDS011;70269;44.768;9.600;2023-09-18T01:47:25;12.43;;;7.35;;
80623;SDS011;70269;44.768;9.600;2023-09-18T01:49:52;11.23;;;7.20;;
80623;SDS011;70269;44.768;9.600;2023-09-18T01:52:17;12.43;;;7.57;;
80623;SDS011;70269;44.768;9.600;2023-09-18T01:54:43;12.52;;;7.45;;
80623;SDS011;70269;44.768;9.600;2023-09-18T01:57:10;14.00;;;7.82;;
80623;SDS011;70269;44.768;9.600;2023-09-18T01:59:37;11.32;;;7.05;;
80623;SDS011;70269;44.768;9.600;2023-09-18T02:02:04;12.40;;;8.38;;
80623;SDS011;70269;44.768;9.600;2023-09-18T02:04:32;12.57;;;7.28;;
80623;SDS011;70269;44.768;9.600;2023-09-18T02:06:58;11.05;;;6.85;;
80623;SDS011;70269;44.768;9.600;2023-09-18T02:09:24;13.18;;;7.50;;
80623;SDS011;70269;44.768;9.600;2023-09-18T02:11:50;12.18;;;7.25;;
80623;SDS011;70269;44.768;9.600;2023-09-18T02:14:16;14.65;;;7.97;;
80623;SDS011;70269;44.768;9.600;2023-09-18T02:16:42;10.95;;;6.65;;
80623;SDS011;70269;44.768;9.600;2023-09-18T02:19:09;10.07;;;6.05;;
80623;SDS011;70269;44.768;9.600;2023-09-18T02:21:39;12.70;;;7.25;;
80623;SDS011;70269;44.768;9.600;2023-09-18T02:24:05;12.70;;;7.28;;
80623;SDS011;70269;44.768;9.600;2023-09-18T02:26:31;12.98;;;6.82;;
80623;SDS011;70269;44.768;9.600;2023-09-18T02:28:58;10.52;;;7.00;;
80623;SDS011;70269;44.768;9.600;2023-09-18T02:31:24;11.73;;;7.43;;
80623;SDS011;70269;44.768;9.600;2023-09-18T02:33:50;12.48;;;7.32;;
80623;SDS011;70269;44.768;9.600;2023-09-18T02:36:16;11.25;;;6.53;;
80623;SDS011;70269;44.768;9.600;2023-09-18T02:38:42;13.32;;;7.03;;
80623;SDS011;70269;44.768;9.600;2023-09-18T02:41:08;13.82;;;7.38;;
80623;SDS011;70269;44.768;9.600;2023-09-18T02:43:34;16.60;;;7.82;;
80623;SDS011;70269;44.768;9.600;2023-09-18T02:46:00;12.55;;;8.05;;
80623;SDS011;70269;44.768;9.600;2023-09-18T02:48:25;15.98;;;7.10;;
80623;SDS011;70269;44.768;9.600;2023-09-18T02:50:51;12.15;;;7.35;;
80623;SDS011;70269;44.768;9.600;2023-09-18T02:53:18;16.88;;;7.82;;
80623;SDS011;70269;44.768;9.600;2023-09-18T02:55:49;13.90;;;7.13;;
80623;SDS011;70269;44.768;9.600;2023-09-18T02:58:16;16.83;;;7.95;;
80623;SDS011;70269;44.768;9.600;2023-09-18T03:00:44;12.27;;;7.10;;
80623;SDS011;70269;44.768;9.600;2023-09-18T03:03:11;15.57;;;7.45;;
80623;SDS011;70269;44.768;9.600;2023-09-18T03:05:38;11.57;;;7.28;;
80623;SDS011;70269;44.768;9.600;2023-09-18T03:08:06;14.35;;;8.25;;
80623;SDS011;70269;44.768;9.600;2023-09-18T03:10:36;12.90;;;6.95;;
80623;SDS011;70269;44.768;9.600;2023-09-18T03:13:05;11.70;;;7.30;;
80623;SDS011;70269;44.768;9.600;2023-09-18T03:15:32;14.48;;;7.53;;
80623;SDS011;70269;44.768;9.600;2023-09-18T03:17:58;14.63;;;7.93;;
80623;SDS011;70269;44.768;9.600;2023-09-18T03:20:26;13.38;;;7.60;;
80623;SDS011;70269;44.768;9.600;2023-09-18T03:22:54;13.55;;;7.80;;
80623;SDS011;70269;44.768;9.600;2023-09-18T03:25:20;13.98;;;8.25;;
80623;SDS011;70269;44.768;9.600;2023-09-18T03:27:47;14.20;;;7.80;;
80623;SDS011;70269;44.768;9.600;2023-09-18T03:30:13;14.35;;;8.10;;
80623;SDS011;70269;44.768;9.600;2023-09-18T03:32:42;13.45;;;7.53;;
80623;SDS011;70269;44.768;9.600;2023-09-18T03:35:08;15.85;;;8.20;;
80623;SDS011;70269;44.768;9.600;2023-09-18T03:37:45;14.98;;;8.75;;
80623;SDS011;70269;44.768;9.600;2023-09-18T03:40:12;14.98;;;8.82;;
80623;SDS011;70269;44.768;9.600;2023-09-18T03:42:38;14.20;;;8.48;;
80623;SDS011;70269;44.768;9.600;2023-09-18T03:45:07;14.23;;;8.23;;
80623;SDS011;70269;44.768;9.600;2023-09-18T03:47:38;14.38;;;7.80;;
80623;SDS011;70269;44.768;9.600;2023-09-18T03:50:08;16.35;;;8.70;;
80623;SDS011;70269;44.768;9.600;2023-09-18T03:52:34;13.95;;;8.45;;
80623;SDS011;70269;44.768;9.600;2023-09-18T03:55:01;15.73;;;8.75;;
80623;SDS011;70269;44.768;9.600;2023-09-18T03:57:27;12.57;;;7.93;;
80623;SDS011;70269;44.768;9.600;2023-09-18T03:59:53;13.93;;;8.48;;
80623;SDS011;70269;44.768;9.600;2023-09-18T04:02:19;15.73;;;8.65;;
80623;SDS011;70269;44.768;9.600;2023-09-18T04:04:45;12.63;;;7.88;;
80623;SDS011;70269;44.768;9.600;2023-09-18T04:07:12;14.63;;;7.95;;
80623;SDS011;70269;44.768;9.600;2023-09-18T04:09:41;12.68;;;7.82;;
80623;SDS011;70269;44.768;9.600;2023-09-18T04:12:07;14.45;;;8.75;;
80623;SDS011;70269;44.768;9.600;2023-09-18T04:14:34;14.85;;;8.20;;
80623;SDS011;70269;44.768;9.600;2023-09-18T04:17:02;15.20;;;8.15;;
80623;SDS011;70269;44.768;9.600;2023-09-18T04:19:27;14.90;;;7.97;;
80623;SDS011;70269;44.768;9.600;2023-09-18T04:21:55;12.45;;;7.32;;
80623;SDS011;70269;44.768;9.600;2023-09-18T04:24:20;13.32;;;7.97;;
80623;SDS011;70269;44.768;9.600;2023-09-18T04:26:46;13.77;;;8.27;;
80623;SDS011;70269;44.768;9.600;2023-09-18T04:29:16;14.23;;;8.85;;
80623;SDS011;70269;44.768;9.600;2023-09-18T04:31:42;13.10;;;7.57;;
80623;SDS011;70269;44.768;9.600;2023-09-18T04:34:07;15.77;;;8.95;;
80623;SDS011;70269;44.768;9.600;2023-09-18T04:36:33;13.18;;;7.18;;
80623;SDS011;70269;44.768;9.600;2023-09-18T04:38:59;13.52;;;7.63;;
80623;SDS011;70269;44.768;9.600;2023-09-18T04:41:24;14.30;;;8.00;;
80623;SDS011;70269;44.768;9.600;2023-09-18T04:43:53;15.90;;;7.70;;
80623;SDS011;70269;44.768;9.600;2023-09-18T04:46:18;15.55;;;8.25;;
80623;SDS011;70269;44.768;9.600;2023-09-18T04:48:44;16.77;;;8.38;;
80623;SDS011;70269;44.768;9.600;2023-09-18T04:51:11;16.98;;;7.95;;
80623;SDS011;70269;44.768;9.600;2023-09-18T04:53:37;12.68;;;7.00;;
80623;SDS011;70269;44.768;9.600;2023-09-18T04:56:03;14.65;;;7.80;;
80623;SDS011;70269;44.768;9.600;2023-09-18T04:58:29;15.48;;;7.85;;
80623;SDS011;70269;44.768;9.600;2023-09-18T05:00:58;17.50;;;8.35;;
80623;SDS011;70269;44.768;9.600;2023-09-18T05:03:26;14.82;;;7.30;;
80623;SDS011;70269;44.768;9.600;2023-09-18T05:05:52;13.40;;;8.07;;
80623;SDS011;70269;44.768;9.600;2023-09-18T05:08:18;13.23;;;7.35;;
80623;SDS011;70269;44.768;9.600;2023-09-18T05:10:44;12.93;;;7.82;;
80623;SDS011;70269;44.768;9.600;2023-09-18T05:13:11;13.40;;;8.43;;
80623;SDS011;70269;44.768;9.600;2023-09-18T05:15:37;14.45;;;7.93;;
80623;SDS011;70269;44.768;9.600;2023-09-18T05:18:02;13.73;;;7.97;;
80623;SDS011;70269;44.768;9.600;2023-09-18T05:20:29;15.25;;;8.25;;
80623;SDS011;70269;44.768;9.600;2023-09-18T05:22:56;14.30;;;8.90;;
80623;SDS011;70269;44.768;9.600;2023-09-18T05:25:23;14.27;;;8.38;;
80623;SDS011;70269;44.768;9.600;2023-09-18T05:27:51;12.45;;;7.88;;
80623;SDS011;70269;44.768;9.600;2023-09-18T05:30:23;12.80;;;8.18;;
80623;SDS011;70269;44.768;9.600;2023-09-18T05:32:52;11.70;;;7.40;;
80623;SDS011;70269;44.768;9.600;2023-09-18T05:35:18;14.98;;;8.02;;
80623;SDS011;70269;44.768;9.600;2023-09-18T05:37:44;12.32;;;7.82;;
80623;SDS011;70269;44.768;9.600;2023-09-18T05:40:10;14.35;;;8.73;;
80623;SDS011;70269;44.768;9.600;2023-09-18T05:42:37;11.48;;;7.72;;
80623;SDS011;70269;44.768;9.600;2023-09-18T05:45:04;13.20;;;7.97;;
80623;SDS011;70269;44.768;9.600;2023-09-18T05:47:33;15.43;;;8.43;;
80623;SDS011;70269;44.768;9.600;2023-09-18T05:50:01;13.38;;;7.75;;
80623;SDS011;70269;44.768;9.600;2023-09-18T05:52:31;17.00;;;9.02;;
80623;SDS011;70269;44.768;9.600;2023-09-18T05:54:58;13.43;;;8.32;;
80623;SDS011;70269;44.768;9.600;2023-09-18T05:57:23;14.23;;;8.25;;
80623;SDS011;70269;44.768;9.600;2023-09-18T05:59:49;14.55;;;8.82;;
80623;SDS011;70269;44.768;9.600;2023-09-18T06:02:15;17.33;;;8.60;;
80623;SDS011;70269;44.768;9.600;2023-09-18T06:04:41;13.98;;;7.95;;
80623;SDS011;70269;44.768;9.600;2023-09-18T06:07:08;14.75;;;8.95;;
80623;SDS011;70269;44.768;9.600;2023-09-18T06:09:33;15.77;;;8.63;;
80623;SDS011;70269;44.768;9.600;2023-09-18T06:11:59;13.43;;;8.15;;
80623;SDS011;70269;44.768;9.600;2023-09-18T06:14:26;13.40;;;7.68;;
80623;SDS011;70269;44.768;9.600;2023-09-18T06:16:51;12.35;;;7.72;;
80623;SDS011;70269;44.768;9.600;2023-09-18T06:19:17;15.90;;;8.10;;
80623;SDS011;70269;44.768;9.600;2023-09-18T06:21:43;16.45;;;9.35;;
80623;SDS011;70269;44.768;9.600;2023-09-18T06:24:09;15.88;;;8.15;;
80623;SDS011;70269;44.768;9.600;2023-09-18T06:26:36;16.45;;;8.82;;
80623;SDS011;70269;44.768;9.600;2023-09-18T06:29:01;12.15;;;7.45;;
80623;SDS011;70269;44.768;9.600;2023-09-18T06:31:27;13.95;;;8.35;;
80623;SDS011;70269;44.768;9.600;2023-09-18T06:33:55;17.25;;;8.70;;
80623;SDS011;70269;44.768;9.600;2023-09-18T06:36:21;14.60;;;8.63;;
80623;SDS011;70269;44.768;9.600;2023-09-18T06:38:46;13.63;;;8.70;;
80623;SDS011;70269;44.768;9.600;2023-09-18T06:41:12;15.23;;;8.70;;
80623;SDS011;70269;44.768;9.600;2023-09-18T06:43:37;14.10;;;7.88;;
80623;SDS011;70269;44.768;9.600;2023-09-18T06:46:03;14.60;;;7.63;;
80623;SDS011;70269;44.768;9.600;2023-09-18T06:48:29;12.98;;;8.13;;
80623;SDS011;70269;44.768;9.600;2023-09-18T06:50:58;12.35;;;7.40;;
80623;SDS011;70269;44.768;9.600;2023-09-18T06:53:25;13.65;;;8.15;;
80623;SDS011;70269;44.768;9.600;2023-09-18T06:55:52;12.02;;;7.72;;
80623;SDS011;70269;44.768;9.600;2023-09-18T06:58:19;12.15;;;6.72;;
80623;SDS011;70269;44.768;9.600;2023-09-18T07:00:44;10.43;;;6.85;;
80623;SDS011;70269;44.768;9.600;2023-09-18T07:03:10;10.75;;;7.15;;
80623;SDS011;70269;44.768;9.600;2023-09-18T07:05:37;11.85;;;6.22;;
80623;SDS011;70269;44.768;9.600;2023-09-18T07:08:03;13.02;;;6.20;;
80623;SDS011;70269;44.768;9.600;2023-09-18T07:10:30;9.20;;;6.30;;
80623;SDS011;70269;44.768;9.600;2023-09-18T07:12:58;8.18;;;5.65;;
80623;SDS011;70269;44.768;9.600;2023-09-18T07:15:23;9.77;;;5.88;;
80623;SDS011;70269;44.768;9.600;2023-09-18T07:17:50;8.52;;;5.72;;
80623;SDS011;70269;44.768;9.600;2023-09-18T07:20:15;10.93;;;5.35;;
80623;SDS011;70269;44.768;9.600;2023-09-18T07:22:45;13.68;;;6.00;;
80623;SDS011;70269;44.768;9.600;2023-09-18T07:25:15;12.05;;;5.80;;
80623;SDS011;70269;44.768;9.600;2023-09-18T07:27:42;9.88;;;5.20;;
80623;SDS011;70269;44.768;9.600;2023-09-18T07:30:11;9.10;;;5.53;;
80623;SDS011;70269;44.768;9.600;2023-09-18T07:32:39;9.48;;;4.82;;
80623;SDS011;70269;44.768;9.600;2023-09-18T07:35:09;10.43;;;5.28;;
80623;SDS011;70269;44.768;9.600;2023-09-18T07:37:35;9.07;;;5.13;;
80623;SDS011;70269;44.768;9.600;2023-09-18T07:40:05;10.60;;;5.22;;
80623;SDS011;70269;44.768;9.600;2023-09-18T07:42:32;7.57;;;4.30;;
80623;SDS011;70269;44.768;9.600;2023-09-18T07:44:58;9.80;;;4.95;;
80623;SDS011;70269;44.768;9.600;2023-09-18T07:47:24;7.97;;;4.55;;
80623;SDS011;70269;44.768;9.600;2023-09-18T07:49:49;9.45;;;5.15;;
80623;SDS011;70269;44.768;9.600;2023-09-18T07:52:16;10.65;;;4.53;;
80623;SDS011;70269;44.768;9.600;2023-09-18T07:54:43;9.60;;;4.28;;
80623;SDS011;70269;44.768;9.600;2023-09-18T07:57:08;10.30;;;4.32;;
80623;SDS011;70269;44.768;9.600;2023-09-18T07:59:37;9.20;;;4.78;;
80623;SDS011;70269;44.768;9.600;2023-09-18T08:02:04;10.25;;;4.35;;
80623;SDS011;70269;44.768;9.600;2023-09-18T08:04:33;8.80;;;3.55;;
80623;SDS011;70269;44.768;9.600;2023-09-18T08:06:59;8.65;;;4.00;;
80623;SDS011;70269;44.768;9.600;2023-09-18T08:09:25;9.80;;;3.65;;
80623;SDS011;70269;44.768;9.600;2023-09-18T08:11:54;14.35;;;4.60;;
80623;SDS011;70269;44.768;9.600;2023-09-18T08:14:23;12.05;;;4.13;;
80623;SDS011;70269;44.768;9.600;2023-09-18T08:16:55;11.95;;;4.13;;
80623;SDS011;70269;44.768;9.600;2023-09-18T08:19:22;14.48;;;3.95;;
80623;SDS011;70269;44.768;9.600;2023-09-18T08:21:48;14.50;;;5.15;;
80623;SDS011;70269;44.768;9.600;2023-09-18T08:24:14;14.52;;;5.40;;
80623;SDS011;70269;44.768;9.600;2023-09-18T08:26:39;17.35;;;3.92;;
80623;SDS011;70269;44.768;9.600;2023-09-18T08:29:05;19.63;;;4.72;;
80623;SDS011;70269;44.768;9.600;2023-09-18T08:31:31;25.13;;;5.15;;
80623;SDS011;70269;44.768;9.600;2023-09-18T08:33:57;18.88;;;4.32;;
80623;SDS011;70269;44.768;9.600;2023-09-18T08:36:23;20.02;;;4.45;;
80623;SDS011;70269;44.768;9.600;2023-09-18T08:38:48;13.73;;;3.75;;
80623;SDS011;70269;44.768;9.600;2023-09-18T08:41:15;29.08;;;5.25;;
80623;SDS011;70269;44.768;9.600;2023-09-18T08:43:44;21.35;;;5.32;;
80623;SDS011;70269;44.768;9.600;2023-09-18T08:46:11;25.73;;;4.57;;
80623;SDS011;70269;44.768;9.600;2023-09-18T08:48:37;23.80;;;4.93;;
80623;SDS011;70269;44.768;9.600;2023-09-18T08:51:04;22.67;;;4.18;;
80623;SDS011;70269;44.768;9.600;2023-09-18T08:53:32;17.63;;;4.78;;
80623;SDS011;70269;44.768;9.600;2023-09-18T08:55:59;23.73;;;4.78;;
80623;SDS011;70269;44.768;9.600;2023-09-18T08:58:33;22.92;;;5.15;;
80623;SDS011;70269;44.768;9.600;2023-09-18T09:01:03;26.98;;;7.03;;
80623;SDS011;70269;44.768;9.600;2023-09-18T09:03:31;21.95;;;4.07;;
80623;SDS011;70269;44.768;9.600;2023-09-18T09:05:59;20.52;;;4.10;;
80623;SDS011;70269;44.768;9.600;2023-09-18T09:08:29;29.55;;;5.63;;
80623;SDS011;70269;44.768;9.600;2023-09-18T09:10:55;22.08;;;4.78;;
80623;SDS011;70269;44.768;9.600;2023-09-18T09:15:51;22.73;;;4.57;;
80623;SDS011;70269;44.768;9.600;2023-09-18T09:18:19;26.75;;;5.80;;
80623;SDS011;70269;44.768;9.600;2023-09-18T09:20:55;30.75;;;5.63;;
80623;SDS011;70269;44.768;9.600;2023-09-18T09:23:25;30.25;;;4.95;;
80623;SDS011;70269;44.768;9.600;2023-09-18T09:25:52;26.27;;;6.35;;
80623;SDS011;70269;44.768;9.600;2023-09-18T09:28:28;30.52;;;5.60;;
80623;SDS011;70269;44.768;9.600;2023-09-18T09:31:00;24.17;;;5.43;;
80623;SDS011;70269;44.768;9.600;2023-09-18T09:33:29;27.67;;;5.85;;
80623;SDS011;70269;44.768;9.600;2023-09-18T09:35:55;28.85;;;5.03;;
80623;SDS011;70269;44.768;9.600;2023-09-18T09:38:27;32.50;;;5.72;;
80623;SDS011;70269;44.768;9.600;2023-09-18T09:40:57;24.73;;;6.07;;
80623;SDS011;70269;44.768;9.600;2023-09-18T09:43:26;31.90;;;5.97;;
80623;SDS011;70269;44.768;9.600;2023-09-18T09:45:59;28.30;;;4.55;;
80623;SDS011;70269;44.768;9.600;2023-09-18T09:48:27;30.08;;;4.88;;
80623;SDS011;70269;44.768;9.600;2023-09-18T09:50:58;30.23;;;5.72;;
80623;SDS011;70269;44.768;9.600;2023-09-18T09:53:44;26.10;;;4.05;;
80623;SDS011;70269;44.768;9.600;2023-09-18T09:56:13;19.63;;;4.25;;
80623;SDS011;70269;44.768;9.600;2023-09-18T09:58:39;24.10;;;4.40;;
80623;SDS011;70269;44.768;9.600;2023-09-18T10:01:10;25.88;;;5.32;;
80623;SDS011;70269;44.768;9.600;2023-09-18T10:03:43;18.15;;;4.38;;
80623;SDS011;70269;44.768;9.600;2023-09-18T10:06:09;28.63;;;4.93;;
80623;SDS011;70269;44.768;9.600;2023-09-18T10:08:38;29.83;;;5.65;;
80623;SDS011;70269;44.768;9.600;2023-09-18T10:11:08;20.35;;;5.10;;
80623;SDS011;70269;44.768;9.600;2023-09-18T10:13:40;23.35;;;4.05;;
80623;SDS011;70269;44.768;9.600;2023-09-18T10:16:06;27.33;;;5.13;;
80623;SDS011;70269;44.768;9.600;2023-09-18T10:21:14;23.23;;;5.05;;
80623;SDS011;70269;44.768;9.600;2023-09-18T10:26:58;27.33;;;4.75;;
80623;SDS011;70269;44.768;9.600;2023-09-18T10:29:26;29.63;;;5.18;;
80623;SDS011;70269;44.768;9.600;2023-09-18T10:31:55;29.23;;;4.97;;
80623;SDS011;70269;44.768;9.600;2023-09-18T10:34:21;22.08;;;6.15;;
80623;SDS011;70269;44.768;9.600;2023-09-18T10:36:53;23.27;;;4.85;;
80623;SDS011;70269;44.768;9.600;2023-09-18T10:39:20;27.25;;;5.22;;
80623;SDS011;70269;44.768;9.600;2023-09-18T10:41:55;17.25;;;4.25;;
80623;SDS011;70269;44.768;9.600;2023-09-18T10:44:22;24.58;;;5.40;;
80623;SDS011;70269;44.768;9.600;2023-09-18T10:46:49;28.67;;;4.85;;
80623;SDS011;70269;44.768;9.600;2023-09-18T10:49:17;27.17;;;5.93;;
80623;SDS011;70269;44.768;9.600;2023-09-18T10:51:45;22.42;;;4.60;;
80623;SDS011;70269;44.768;9.600;2023-09-18T10:54:15;21.40;;;4.57;;
80623;SDS011;70269;44.768;9.600;2023-09-18T10:56:45;19.77;;;4.75;;
80623;SDS011;70269;44.768;9.600;2023-09-18T10:59:11;27.77;;;4.68;;
80623;SDS011;70269;44.768;9.600;2023-09-18T11:01:38;22.58;;;4.38;;
80623;SDS011;70269;44.768;9.600;2023-09-18T11:04:04;14.23;;;4.47;;
80623;SDS011;70269;44.768;9.600;2023-09-18T11:09:22;20.15;;;4.50;;
80623;SDS011;70269;44.768;9.600;2023-09-18T11:12:03;22.15;;;4.43;;
80623;SDS011;70269;44.768;9.600;2023-09-18T11:14:42;22.02;;;4.68;;
80623;SDS011;70269;44.768;9.600;2023-09-18T11:20:07;16.65;;;4.05;;
80623;SDS011;70269;44.768;9.600;2023-09-18T11:22:45;17.33;;;4.15;;
80623;SDS011;70269;44.768;9.600;2023-09-18T11:28:05;20.73;;;3.95;;
80623;SDS011;70269;44.768;9.600;2023-09-18T11:30:35;15.18;;;4.22;;
80623;SDS011;70269;44.768;9.600;2023-09-18T11:33:02;21.50;;;3.80;;
80623;SDS011;70269;44.768;9.600;2023-09-18T11:35:29;14.25;;;3.00;;
80623;SDS011;70269;44.768;9.600;2023-09-18T11:38:06;17.50;;;4.47;;
80623;SDS011;70269;44.768;9.600;2023-09-18T11:40:34;21.30;;;4.20;;
80623;SDS011;70269;44.768;9.600;2023-09-18T11:43:19;14.70;;;3.20;;
80623;SDS011;70269;44.768;9.600;2023-09-18T11:45:52;17.40;;;2.85;;
80623;SDS011;70269;44.768;9.600;2023-09-18T11:48:19;16.25;;;4.30;;
80623;SDS011;70269;44.768;9.600;2023-09-18T11:50:46;18.48;;;3.15;;
80623;SDS011;70269;44.768;9.600;2023-09-18T11:53:16;14.98;;;3.50;;
80623;SDS011;70269;44.768;9.600;2023-09-18T11:55:45;12.13;;;2.88;;
80623;SDS011;70269;44.768;9.600;2023-09-18T11:58:11;17.50;;;4.15;;
80623;SDS011;70269;44.768;9.600;2023-09-18T12:00:39;18.60;;;3.53;;
80623;SDS011;70269;44.768;9.600;2023-09-18T12:03:14;17.70;;;2.90;;
80623;SDS011;70269;44.768;9.600;2023-09-18T12:08:25;18.00;;;3.08;;
80623;SDS011;70269;44.768;9.600;2023-09-18T12:10:55;13.00;;;2.97;;
80623;SDS011;70269;44.768;9.600;2023-09-18T12:13:21;13.73;;;3.30;;
80623;SDS011;70269;44.768;9.600;2023-09-18T12:15:49;9.88;;;2.63;;
80623;SDS011;70269;44.768;9.600;2023-09-18T12:18:16;10.32;;;3.10;;
80623;SDS011;70269;44.768;9.600;2023-09-18T12:20:46;16.52;;;3.00;;
80623;SDS011;70269;44.768;9.600;2023-09-18T12:23:13;12.25;;;3.33;;
80623;SDS011;70269;44.768;9.600;2023-09-18T12:25:39;10.30;;;3.22;;
80623;SDS011;70269;44.768;9.600;2023-09-18T12:28:08;16.05;;;3.08;;
80623;SDS011;70269;44.768;9.600;2023-09-18T12:30:34;7.25;;;2.20;;
80623;SDS011;70269;44.768;9.600;2023-09-18T12:33:00;13.80;;;2.90;;
80623;SDS011;70269;44.768;9.600;2023-09-18T12:35:26;8.68;;;1.90;;
80623;SDS011;70269;44.768;9.600;2023-09-18T12:38:01;10.63;;;3.55;;
80623;SDS011;70269;44.768;9.600;2023-09-18T12:40:30;15.00;;;2.97;;
80623;SDS011;70269;44.768;9.600;2023-09-18T12:42:58;12.15;;;2.25;;
80623;SDS011;70269;44.768;9.600;2023-09-18T12:45:25;12.98;;;2.70;;
80623;SDS011;70269;44.768;9.600;2023-09-18T12:47:51;9.55;;;3.08;;
80623;SDS011;70269;44.768;9.600;2023-09-18T12:50:19;14.50;;;2.80;;
80623;SDS011;70269;44.768;9.600;2023-09-18T12:52:45;17.05;;;3.60;;
80623;SDS011;70269;44.768;9.600;2023-09-18T12:55:23;12.32;;;2.90;;
80623;SDS011;70269;44.768;9.600;2023-09-18T12:57:50;13.85;;;3.97;;
80623;SDS011;70269;44.768;9.600;2023-09-18T13:00:18;14.18;;;2.80;;
80623;SDS011;70269;44.768;9.600;2023-09-18T13:02:46;15.00;;;4.25;;
80623;SDS011;70269;44.768;9.600;2023-09-18T13:05:12;15.90;;;3.03;;
80623;SDS011;70269;44.768;9.600;2023-09-18T13:10:10;14.18;;;3.33;;
80623;SDS011;70269;44.768;9.600;2023-09-18T13:12:53;15.13;;;3.20;;
80623;SDS011;70269;44.768;9.600;2023-09-18T13:15:30;13.15;;;4.05;;
80623;SDS011;70269;44.768;9.600;2023-09-18T13:17:58;13.07;;;3.05;;
80623;SDS011;70269;44.768;9.600;2023-09-18T13:20:26;12.82;;;3.08;;
80623;SDS011;70269;44.768;9.600;2023-09-18T13:22:58;15.38;;;4.07;;
80623;SDS011;70269;44.768;9.600;2023-09-18T13:25:38;14.13;;;3.35;;
80623;SDS011;70269;44.768;9.600;2023-09-18T13:28:06;11.77;;;3.40;;
80623;SDS011;70269;44.768;9.600;2023-09-18T13:30:33;15.50;;;3.22;;
80623;SDS011;70269;44.768;9.600;2023-09-18T13:33:08;12.30;;;3.47;;
80623;SDS011;70269;44.768;9.600;2023-09-18T13:35:34;13.35;;;3.17;;
80623;SDS011;70269;44.768;9.600;2023-09-18T13:38:03;13.68;;;3.45;;
80623;SDS011;70269;44.768;9.600;2023-09-18T13:40:31;11.65;;;3.05;;
80623;SDS011;70269;44.768;9.600;2023-09-18T13:42:58;12.70;;;2.72;;
80623;SDS011;70269;44.768;9.600;2023-09-18T13:45:24;11.15;;;2.88;;
80623;SDS011;70269;44.768;9.600;2023-09-18T13:47:50;12.45;;;3.28;;
80623;SDS011;70269;44.768;9.600;2023-09-18T13:50:16;17.27;;;3.53;;
80623;SDS011;70269;44.768;9.600;2023-09-18T13:52:41;10.40;;;2.35;;
80623;SDS011;70269;44.768;9.600;2023-09-18T13:55:07;10.77;;;2.72;;
80623;SDS011;70269;44.768;9.600;2023-09-18T13:57:37;15.95;;;2.90;;
80623;SDS011;70269;44.768;9.600;2023-09-18T14:00:03;12.63;;;2.50;;
80623;SDS011;70269;44.768;9.600;2023-09-18T14:02:38;11.02;;;2.20;;
80623;SDS011;70269;44.768;9.600;2023-09-18T14:05:05;9.90;;;3.20;;
80623;SDS011;70269;44.768;9.600;2023-09-18T14:07:31;12.32;;;2.75;;
80623;SDS011;70269;44.768;9.600;2023-09-18T14:09:56;11.90;;;3.05;;
80623;SDS011;70269;44.768;9.600;2023-09-18T14:12:23;16.38;;;3.17;;
80623;SDS011;70269;44.768;9.600;2023-09-18T14:14:50;14.00;;;3.83;;
80623;SDS011;70269;44.768;9.600;2023-09-18T14:17:15;16.70;;;3.30;;
80623;SDS011;70269;44.768;9.600;2023-09-18T14:19:43;15.13;;;2.90;;
80623;SDS011;70269;44.768;9.600;2023-09-18T14:22:09;14.40;;;3.17;;
80623;SDS011;70269;44.768;9.600;2023-09-18T14:24:36;9.68;;;2.35;;
80623;SDS011;70269;44.768;9.600;2023-09-18T14:27:01;14.10;;;3.05;;
80623;SDS011;70269;44.768;9.600;2023-09-18T14:29:31;9.95;;;2.08;;
80623;SDS011;70269;44.768;9.600;2023-09-18T14:31:58;13.88;;;2.95;;
80623;SDS011;70269;44.768;9.600;2023-09-18T14:34:24;12.98;;;2.33;;
80623;SDS011;70269;44.768;9.600;2023-09-18T14:36:50;5.13;;;1.20;;
80623;SDS011;70269;44.768;9.600;2023-09-18T14:39:15;10.20;;;1.77;;
80623;SDS011;70269;44.768;9.600;2023-09-18T14:41:41;6.30;;;1.30;;
80623;SDS011;70269;44.768;9.600;2023-09-18T14:44:07;9.18;;;1.30;;
80623;SDS011;70269;44.768;9.600;2023-09-18T14:46:34;6.55;;;1.38;;
80623;SDS011;70269;44.768;9.600;2023-09-18T14:49:02;5.32;;;1.30;;
80623;SDS011;70269;44.768;9.600;2023-09-18T14:51:28;7.28;;;1.85;;
80623;SDS011;70269;44.768;9.600;2023-09-18T14:53:56;6.28;;;1.10;;
80623;SDS011;70269;44.768;9.600;2023-09-18T14:56:23;6.15;;;1.20;;
80623;SDS011;70269;44.768;9.600;2023-09-18T14:58:48;9.98;;;1.35;;
80623;SDS011;70269;44.768;9.600;2023-09-18T15:01:15;5.72;;;1.20;;